Time;durP1;ratioP1;P1;durP2;ratioP2;P2;SDS_P1;SDS_P2;PMS_P1;PMS_P2;Temp;Humidity;BMP_temperature;BMP_pressure;BME280_temperature;BME280_humidity;BME280_pressure;Samples;Min_cycle;Max_cycle;Signal;HPM_P1;HPM_P2
2022/05/09 00:01:22;;;;;;;19.35;3.15;;;14.30;99.90;;;;;;5012404;28;20618;-80
2022/05/09 00:03:48;;;;;;;9.13;3.10;;;14.40;99.90;;;;;;5012460;28;20173;-80
2022/05/09 00:06:14;;;;;;;14.63;3.38;;;14.50;99.90;;;;;;5027572;28;20188;-80
2022/05/09 00:08:42;;;;;;;8.52;3.55;;;14.50;99.90;;;;;;5012388;28;20180;-85
2022/05/09 00:11:12;;;;;;;7.50;2.83;;;14.50;99.90;;;;;;5013820;28;20181;-80
2022/05/09 00:13:38;;;;;;;8.85;2.90;;;14.40;99.90;;;;;;5012351;28;20168;-79
2022/05/09 00:16:05;;;;;;;9.27;2.90;;;14.40;99.90;;;;;;5012182;28;20188;-80
2022/05/09 00:18:30;;;;;;;9.65;3.08;;;14.50;99.90;;;;;;5027423;28;20246;-80
2022/05/09 00:20:56;;;;;;;9.13;2.90;;;14.40;99.90;;;;;;5012313;28;20168;-81
2022/05/09 00:23:22;;;;;;;11.88;2.95;;;14.40;99.90;;;;;;5029773;28;20176;-80
2022/05/09 00:25:48;;;;;;;5.10;2.83;;;14.30;99.90;;;;;;5015887;28;20645;-80
2022/05/09 00:28:14;;;;;;;8.48;3.38;;;14.30;99.90;;;;;;5016058;28;20191;-82
2022/05/09 00:30:41;;;;;;;6.93;3.10;;;14.30;99.90;;;;;;5030909;28;20717;-79
2022/05/09 00:33:06;;;;;;;4.78;3.22;;;14.20;99.90;;;;;;5015214;28;20172;-80
2022/05/09 00:35:32;;;;;;;9.23;3.65;;;14.20;99.90;;;;;;5015571;28;20285;-82
2022/05/09 00:37:58;;;;;;;15.27;3.40;;;14.10;99.90;;;;;;5015942;28;20165;-80
2022/05/09 00:40:24;;;;;;;6.32;2.95;;;14.00;99.90;;;;;;5015874;28;20176;-80
2022/05/09 00:42:52;;;;;;;10.77;3.83;;;14.00;99.90;;;;;;5015743;28;20168;-80
2022/05/09 00:45:22;;;;;;;10.32;3.38;;;13.90;99.90;;;;;;5015112;28;20160;-80
2022/05/09 00:47:48;;;;;;;6.32;3.58;;;13.80;99.90;;;;;;5015524;28;20165;-80
2022/05/09 00:50:29;;;;;;;15.45;3.35;;;13.60;99.90;;;;;;5015354;28;20176;-80
2022/05/09 00:52:58;;;;;;;7.82;3.25;;;13.50;99.90;;;;;;5015989;28;20264;-82
2022/05/09 00:55:27;;;;;;;9.77;3.85;;;13.30;99.90;;;;;;5030859;28;20270;-79
2022/05/09 00:58:04;;;;;;;12.65;3.35;;;13.40;99.90;;;;;;5015855;28;20567;-81
2022/05/09 01:00:29;;;;;;;9.45;3.25;;;13.30;99.90;;;;;;5015092;28;20183;-79
2022/05/09 01:03:00;;;;;;;6.28;3.38;;;13.50;99.90;;;;;;5015170;28;20165;-78
2022/05/09 01:05:27;;;;;;;5.75;3.03;;;13.60;99.90;;;;;;5015152;28;20216;-79
2022/05/09 01:07:54;;;;;;;6.70;4.18;;;13.60;99.90;;;;;;5015393;28;20177;-80
2022/05/09 01:10:24;;;;;;;13.10;3.67;;;13.60;99.90;;;;;;5015199;28;20173;-79
2022/05/09 01:12:51;;;;;;;17.08;3.22;;;13.60;99.90;;;;;;5029797;28;20218;-79
2022/05/09 01:15:17;;;;;;;15.40;4.13;;;13.60;99.90;;;;;;5014672;28;20196;-78
2022/05/09 01:17:46;;;;;;;8.80;2.90;;;13.60;99.90;;;;;;5014848;28;20701;-81
2022/05/09 01:20:12;;;;;;;6.22;3.75;;;13.60;99.90;;;;;;5015019;28;20228;-80
2022/05/09 01:22:40;;;;;;;9.55;3.17;;;13.70;99.90;;;;;;5014894;28;20719;-79
2022/05/09 01:25:09;;;;;;;7.80;2.95;;;13.70;99.90;;;;;;5014789;28;20191;-78
2022/05/09 01:27:38;;;;;;;6.88;3.30;;;13.80;99.90;;;;;;5014799;28;20173;-78
2022/05/09 01:30:12;;;;;;;7.28;3.53;;;13.70;99.90;;;;;;5014758;28;20617;-79
2022/05/09 01:32:45;;;;;;;12.88;3.53;;;13.60;99.90;;;;;;5014685;28;20219;-79
2022/05/09 01:35:24;;;;;;;15.60;3.60;;;13.60;99.90;;;;;;5014501;28;20863;-80
2022/05/09 01:38:02;;;;;;;19.67;3.70;;;13.50;99.90;;;;;;5030151;28;20597;-81
2022/05/09 01:40:28;;;;;;;10.38;3.80;;;13.50;99.90;;;;;;5013470;28;20644;-80
2022/05/09 01:42:53;;;;;;;4.57;3.17;;;13.40;99.90;;;;;;5014650;28;20203;-80
2022/05/09 01:45:20;;;;;;;14.95;4.10;;;13.20;99.90;;;;;;5014653;28;20275;-79
2022/05/09 01:50:30;;;;;;;4.80;3.40;;;13.40;99.90;;;;;;5014579;28;20254;-79
2022/05/09 01:52:56;;;;;;;13.20;3.80;;;13.30;99.90;;;;;;5014122;28;20165;-78
2022/05/09 01:55:22;;;;;;;6.47;3.45;;;13.30;99.90;;;;;;5014269;28;20588;-79
2022/05/09 01:57:49;;;;;;;10.45;4.53;;;13.20;99.90;;;;;;5014174;28;20171;-79
2022/05/09 02:00:15;;;;;;;14.13;4.50;;;13.10;99.90;;;;;;5029530;28;20172;-78
2022/05/09 02:02:42;;;;;;;5.78;3.67;;;13.40;99.90;;;;;;5029223;28;20172;-79
2022/05/09 02:05:08;;;;;;;12.27;4.28;;;13.40;99.90;;;;;;5014418;28;20177;-80
2022/05/09 02:07:35;;;;;;;9.60;3.60;;;13.40;99.90;;;;;;5014179;28;20184;-79
2022/05/09 02:10:01;;;;;;;9.00;3.55;;;13.40;99.90;;;;;;5029259;28;20176;-79
2022/05/09 02:12:27;;;;;;;14.57;4.22;;;13.30;99.90;;;;;;5029356;28;20230;-80
2022/05/09 02:14:53;;;;;;;11.05;3.78;;;13.40;99.90;;;;;;5013921;28;20234;-79
2022/05/09 02:17:19;;;;;;;6.88;3.47;;;13.30;99.90;;;;;;5028684;28;20187;-78
2022/05/09 02:19:45;;;;;;;11.38;3.55;;;13.00;99.90;;;;;;5013822;28;20169;-79
2022/05/09 02:22:11;;;;;;;5.28;3.97;;;12.90;99.90;;;;;;5013801;28;20173;-78
2022/05/09 02:24:41;;;;;;;13.90;4.85;;;12.90;99.90;;;;;;5029285;28;20187;-78
2022/05/09 02:27:08;;;;;;;10.80;3.75;;;12.70;99.90;;;;;;5013749;28;20193;-78
2022/05/09 02:29:34;;;;;;;9.23;4.03;;;12.50;99.90;;;;;;5013997;28;20509;-78
2022/05/09 02:32:02;;;;;;;14.23;3.83;;;12.50;99.90;;;;;;5013668;28;20504;-79
2022/05/09 02:34:28;;;;;;;13.23;4.07;;;12.60;99.90;;;;;;5013418;28;20212;-80
2022/05/09 02:36:54;;;;;;;8.68;4.03;;;12.80;99.90;;;;;;5013222;28;20193;-80
2022/05/09 02:39:20;;;;;;;8.00;4.10;;;12.80;99.90;;;;;;5030136;28;20171;-80
2022/05/09 02:41:46;;;;;;;16.60;3.75;;;12.70;99.90;;;;;;5033125;28;20165;-81
2022/05/09 02:44:12;;;;;;;7.72;3.65;;;12.60;99.90;;;;;;5034786;28;20148;-80
2022/05/09 02:46:40;;;;;;;10.70;3.55;;;12.60;99.90;;;;;;5035875;28;20189;-81
2022/05/09 02:49:06;;;;;;;8.07;3.70;;;12.30;99.90;;;;;;5041268;28;20172;-80
2022/05/09 02:51:31;;;;;;;6.53;3.50;;;12.20;99.90;;;;;;5023147;28;20164;-80
2022/05/09 02:53:58;;;;;;;13.43;4.43;;;12.00;99.90;;;;;;5032437;28;20207;-81
2022/05/09 02:56:25;;;;;;;7.05;3.53;;;12.10;99.90;;;;;;5029317;28;20226;-84
2022/05/09 02:58:51;;;;;;;14.48;4.80;;;12.40;99.90;;;;;;5013612;28;20172;-80
2022/05/09 03:01:16;;;;;;;8.07;3.65;;;12.50;99.90;;;;;;5012935;28;20259;-80
2022/05/09 03:06:26;;;;;;;6.30;4.10;;;12.40;99.90;;;;;;5013200;28;20219;-80
2022/05/09 03:08:52;;;;;;;8.18;3.95;;;12.20;99.90;;;;;;5013013;28;20610;-81
2022/05/09 03:11:18;;;;;;;13.25;4.65;;;12.20;99.90;;;;;;5013119;28;20617;-79
2022/05/09 03:13:43;;;;;;;12.88;4.25;;;12.20;99.90;;;;;;5028280;28;20164;-80
2022/05/09 03:16:09;;;;;;;11.50;4.63;;;12.30;99.90;;;;;;5012946;28;20724;-80
2022/05/09 03:18:36;;;;;;;12.55;3.97;;;12.40;99.90;;;;;;5013075;28;20614;-81
2022/05/09 03:21:02;;;;;;;10.88;4.30;;;12.30;99.90;;;;;;5012935;28;20208;-79
2022/05/09 03:23:27;;;;;;;6.85;3.90;;;12.40;99.90;;;;;;5013048;28;20667;-80
2022/05/09 03:25:53;;;;;;;8.27;4.00;;;12.40;99.90;;;;;;5012638;28;20291;-80
2022/05/09 03:28:24;;;;;;;7.13;4.43;;;12.50;99.90;;;;;;5012707;28;20260;-80
2022/05/09 03:30:53;;;;;;;8.75;3.80;;;12.40;99.90;;;;;;5012528;28;20247;-80
2022/05/09 03:33:24;;;;;;;14.50;4.90;;;12.50;99.90;;;;;;5012377;28;20168;-80
2022/05/09 03:35:50;;;;;;;11.57;5.05;;;12.40;99.90;;;;;;5012595;28;20636;-80
2022/05/09 03:38:16;;;;;;;9.55;4.22;;;12.30;99.90;;;;;;5012624;28;20247;-80
2022/05/09 03:40:41;;;;;;;9.88;3.97;;;12.40;99.90;;;;;;5012272;28;20184;-80
2022/05/09 03:43:07;;;;;;;13.13;4.32;;;12.30;99.90;;;;;;5012770;28;20243;-80
2022/05/09 03:45:35;;;;;;;12.05;4.00;;;12.00;99.90;;;;;;5012301;28;20189;-80
2022/05/09 03:48:00;;;;;;;7.47;3.65;;;12.00;99.90;;;;;;5012525;28;20175;-80
2022/05/09 03:50:28;;;;;;;9.70;3.70;;;11.90;99.90;;;;;;5012623;28;20255;-79
2022/05/09 03:52:54;;;;;;;12.63;4.88;;;11.80;99.90;;;;;;5012777;28;20177;-80
2022/05/09 03:55:19;;;;;;;11.07;4.15;;;11.80;99.90;;;;;;5012669;28;20226;-80
2022/05/09 03:57:51;;;;;;;9.57;4.63;;;11.90;99.90;;;;;;5015412;28;20164;-80
2022/05/09 04:00:18;;;;;;;8.88;4.03;;;12.10;99.90;;;;;;5016778;28;20255;-81
2022/05/09 04:02:45;;;;;;;13.35;3.95;;;12.20;99.90;;;;;;5016730;28;20692;-78
2022/05/09 04:05:15;;;;;;;13.02;4.50;;;12.20;99.90;;;;;;5017097;28;20268;-81
2022/05/09 04:07:43;;;;;;;9.25;4.93;;;12.20;99.90;;;;;;5017023;28;20165;-84
2022/05/09 04:10:09;;;;;;;12.18;5.85;;;12.20;99.90;;;;;;5016744;28;20647;-80
2022/05/09 04:12:35;;;;;;;30.75;5.47;;;12.20;99.90;;;;;;5016659;28;20156;-85
2022/05/09 04:17:45;;;;;;;10.68;4.68;;;11.90;99.90;;;;;;5015993;28;20176;-80
2022/05/09 04:20:11;;;;;;;13.77;4.72;;;11.80;99.90;;;;;;5016065;28;20549;-79
2022/05/09 04:22:37;;;;;;;14.80;4.63;;;12.00;99.90;;;;;;5015983;28;20219;-83
2022/05/09 04:25:04;;;;;;;7.97;4.78;;;12.20;99.90;;;;;;5016298;28;20160;-80
2022/05/09 04:27:29;;;;;;;10.82;4.50;;;12.40;99.90;;;;;;5016230;28;20160;-80
2022/05/09 04:29:56;;;;;;;9.48;5.30;;;12.30;99.90;;;;;;5016128;28;20504;-83
2022/05/09 04:32:22;;;;;;;12.98;5.03;;;12.30;99.90;;;;;;5016284;28;20708;-80
2022/05/09 04:34:47;;;;;;;10.18;4.75;;;12.20;99.90;;;;;;5015822;28;20211;-79
2022/05/09 04:37:13;;;;;;;25.48;4.60;;;12.20;99.90;;;;;;5015540;28;20188;-80
2022/05/09 04:39:39;;;;;;;13.00;4.68;;;12.10;99.90;;;;;;5015609;28;20176;-80
2022/05/09 04:42:05;;;;;;;18.88;4.25;;;12.30;99.90;;;;;;5015481;28;20161;-80
2022/05/09 04:44:30;;;;;;;10.45;4.32;;;12.40;99.90;;;;;;5015749;28;20600;-80
2022/05/09 04:46:56;;;;;;;19.98;5.78;;;12.50;99.90;;;;;;5015173;28;20223;-79
2022/05/09 04:49:22;;;;;;;21.23;5.28;;;12.70;99.90;;;;;;5015293;28;20219;-79
2022/05/09 04:51:47;;;;;;;16.85;5.00;;;12.70;99.90;;;;;;5031161;28;20169;-79
2022/05/09 04:54:14;;;;;;;15.07;5.10;;;12.80;99.90;;;;;;5015253;28;20657;-78
2022/05/09 04:56:40;;;;;;;11.68;4.43;;;12.70;99.90;;;;;;5030715;28;20188;-80
2022/05/09 04:59:06;;;;;;;14.10;4.93;;;12.80;99.90;;;;;;5015465;28;20180;-80
2022/05/09 05:01:31;;;;;;;21.85;5.47;;;13.00;99.90;;;;;;5015007;28;20648;-80
2022/05/09 05:03:57;;;;;;;20.77;4.90;;;13.10;99.90;;;;;;5013719;28;20180;-82
2022/05/09 05:06:23;;;;;;;26.75;4.85;;;13.20;99.90;;;;;;5031231;28;20195;-85
2022/05/09 05:08:48;;;;;;;27.50;4.30;;;13.10;99.90;;;;;;5015285;28;20239;-84
2022/05/09 05:11:14;;;;;;;31.88;4.93;;;13.10;99.90;;;;;;5031509;28;20180;-84
2022/05/09 05:13:39;;;;;;;12.82;5.22;;;13.00;99.90;;;;;;5030919;28;20179;-84
2022/05/09 05:16:05;;;;;;;11.68;5.35;;;13.00;99.90;;;;;;5015764;28;20199;-83
2022/05/09 05:18:32;;;;;;;13.38;5.55;;;12.70;99.90;;;;;;5015928;28;20617;-80
2022/05/09 05:20:58;;;;;;;24.02;5.60;;;12.90;99.90;;;;;;5014853;28;20168;-81
2022/05/09 05:23:25;;;;;;;25.42;5.28;;;13.00;99.90;;;;;;5014976;28;20684;-79
2022/05/09 05:25:51;;;;;;;12.27;7.00;;;13.10;99.90;;;;;;5014646;28;20189;-83
2022/05/09 05:28:17;;;;;;;21.75;6.40;;;13.10;99.90;;;;;;5015283;28;20168;-78
2022/05/09 05:30:44;;;;;;;41.38;5.93;;;13.30;99.90;;;;;;5030195;28;20168;-78
2022/05/09 05:33:10;;;;;;;13.85;5.40;;;13.40;99.90;;;;;;5014967;28;20173;-78
2022/05/09 05:35:35;;;;;;;25.67;5.63;;;13.50;99.90;;;;;;5014149;28;20212;-79
2022/05/09 05:38:01;;;;;;;32.58;6.03;;;13.30;99.90;;;;;;5015162;28;20633;-82
2022/05/09 05:40:27;;;;;;;18.23;6.45;;;13.20;99.90;;;;;;5014642;28;20176;-79
2022/05/09 05:42:52;;;;;;;18.67;5.20;;;13.20;99.90;;;;;;5014566;28;20167;-85
2022/05/09 05:45:21;;;;;;;18.60;5.25;;;13.20;99.90;;;;;;5014923;28;20167;-78
2022/05/09 05:47:48;;;;;;;9.95;5.13;;;13.10;99.90;;;;;;5014066;28;20169;-86
2022/05/09 05:50:15;;;;;;;19.45;5.82;;;13.30;99.90;;;;;;5014450;28;20168;-79
2022/05/09 05:52:40;;;;;;;12.98;5.50;;;13.40;99.90;;;;;;5014327;28;20169;-79
2022/05/09 05:55:07;;;;;;;18.83;5.78;;;13.40;99.90;;;;;;5014197;28;20204;-79
2022/05/09 05:57:34;;;;;;;22.70;4.85;;;13.70;99.90;;;;;;5015088;28;20244;-78
2022/05/09 06:00:06;;;;;;;23.02;5.72;;;13.90;99.90;;;;;;5014246;28;20164;-78
2022/05/09 06:02:32;;;;;;;15.00;4.90;;;13.90;99.90;;;;;;5014870;28;20173;-79
2022/05/09 06:04:58;;;;;;;20.45;4.80;;;13.90;99.90;;;;;;5014325;28;20629;-82
2022/05/09 06:07:24;;;;;;;17.45;6.72;;;14.00;99.90;;;;;;5014062;28;20193;-78
2022/05/09 06:09:51;;;;;;;19.73;5.57;;;14.10;99.90;;;;;;5013841;28;20172;-78
2022/05/09 06:12:19;;;;;;;22.38;5.35;;;14.10;99.90;;;;;;5029100;28;20180;-81
2022/05/09 06:15:24;;;;;;;23.88;5.68;;;14.20;99.90;;;;;;5014146;28;20208;-82
2022/05/09 06:17:33;;;;;;;16.48;5.57;;;14.30;99.90;;;;;;5014031;28;20219;-79
2022/05/09 06:19:58;;;;;;;15.38;4.78;;;14.40;99.90;;;;;;5028090;28;20235;-79
2022/05/09 06:22:24;;;;;;;14.20;4.90;;;14.40;99.90;;;;;;5014527;28;20165;-79
2022/05/09 06:24:58;;;;;;;18.15;6.30;;;14.60;99.90;;;;;;5029638;28;20176;-82
2022/05/09 06:27:24;;;;;;;14.50;6.00;;;14.70;99.90;;;;;;5029811;28;20184;-84
2022/05/09 06:29:49;;;;;;;21.88;5.93;;;14.60;99.90;;;;;;5029547;28;20176;-84
2022/05/09 06:32:18;;;;;;;19.23;5.32;;;14.60;99.90;;;;;;5029290;28;20633;-82
2022/05/09 06:34:45;;;;;;;17.70;5.65;;;14.60;99.90;;;;;;5014143;28;20211;-81
2022/05/09 06:37:10;;;;;;;32.10;6.38;;;14.70;99.90;;;;;;5013647;28;20652;-84
2022/05/09 06:39:37;;;;;;;40.40;6.43;;;14.90;99.90;;;;;;5013903;28;20274;-79
2022/05/09 06:42:07;;;;;;;18.00;5.38;;;15.00;99.90;;;;;;5016003;28;20311;-78
2022/05/09 06:44:35;;;;;;;20.17;5.28;;;15.10;99.90;;;;;;5032803;28;20248;-78
2022/05/09 06:47:02;;;;;;;24.90;4.82;;;15.10;99.90;;;;;;5031194;28;20184;-78
2022/05/09 06:49:28;;;;;;;9.93;5.10;;;15.30;99.90;;;;;;5029686;28;20626;-79
2022/05/09 06:51:53;;;;;;;17.95;5.55;;;15.50;99.90;;;;;;5022424;28;20168;-80
2022/05/09 06:54:21;;;;;;;12.88;4.85;;;15.60;99.90;;;;;;5021890;28;20192;-79
2022/05/09 06:56:48;;;;;;;25.30;6.97;;;15.80;99.90;;;;;;5016709;28;20204;-79
2022/05/09 06:59:14;;;;;;;14.90;6.30;;;15.80;99.90;;;;;;5013611;28;20176;-79
2022/05/09 07:01:39;;;;;;;7.30;4.22;;;16.00;99.90;;;;;;5013318;28;20621;-78
2022/05/09 07:04:05;;;;;;;9.88;4.63;;;16.20;99.90;;;;;;5012601;28;20169;-78
2022/05/09 07:06:31;;;;;;;15.18;5.10;;;16.80;99.90;;;;;;5013248;28;20574;-80
2022/05/09 07:08:56;;;;;;;9.70;4.28;;;17.50;99.90;;;;;;5028267;28;20180;-79
2022/05/09 07:11:22;;;;;;;16.85;4.38;;;18.70;99.90;;;;;;5013166;28;20184;-81
2022/05/09 07:13:48;;;;;;;25.52;4.05;;;20.10;99.90;;;;;;5013376;28;20210;-81
2022/05/09 07:16:14;;;;;;;20.23;4.30;;;20.90;99.90;;;;;;5012283;28;20201;-81
2022/05/09 07:18:41;;;;;;;12.45;4.25;;;21.40;99.90;;;;;;5029339;28;20168;-81
2022/05/09 07:21:08;;;;;;;26.52;4.53;;;22.30;99.90;;;;;;5028304;28;20621;-83
2022/05/09 07:23:34;;;;;;;39.00;5.00;;;22.50;99.90;;;;;;5028523;28;20173;-80
2022/05/09 07:26:03;;;;;;;40.65;5.47;;;22.60;99.90;;;;;;5016904;28;20181;-78
2022/05/09 07:28:30;;;;;;;24.50;4.53;;;22.70;99.90;;;;;;5023728;28;20306;-79
2022/05/09 07:30:56;;;;;;;36.72;5.82;;;23.40;99.90;;;;;;5028337;28;20167;-81
2022/05/09 07:33:22;;;;;;;19.88;4.85;;;23.50;99.90;;;;;;5018053;28;20172;-85
2022/05/09 07:35:48;;;;;;;18.25;4.20;;;23.40;99.90;;;;;;5032762;28;20204;-81
2022/05/09 07:38:15;;;;;;;11.02;4.40;;;22.40;99.90;;;;;;5016646;28;20231;-81
2022/05/09 07:40:42;;;;;;;18.00;3.83;;;22.10;99.90;;;;;;5016774;28;20589;-82
2022/05/09 07:43:16;;;;;;;10.13;4.45;;;21.30;99.90;;;;;;5016112;28;20221;-82
2022/05/09 07:45:43;;;;;;;10.30;3.75;;;20.90;99.90;;;;;;5015222;28;20667;-81
2022/05/09 07:48:10;;;;;;;16.52;3.97;;;20.20;99.90;;;;;;5016764;28;20723;-82
2022/05/09 07:50:36;;;;;;;19.58;4.70;;;19.70;99.90;;;;;;5023643;28;20227;-82
2022/05/09 07:53:15;;;;;;;26.30;5.00;;;19.30;99.90;;;;;;5016691;28;20168;-81
2022/05/09 07:55:42;;;;;;;9.85;4.13;;;19.00;99.90;;;;;;5017096;28;20707;-82
2022/05/09 07:58:10;;;;;;;26.95;5.30;;;18.90;99.90;;;;;;5016998;28;20168;-82
2022/05/09 08:00:41;;;;;;;16.35;4.15;;;19.00;99.90;;;;;;5016638;28;20168;-84
2022/05/09 08:03:16;;;;;;;15.13;3.60;;;19.00;99.90;;;;;;5036946;28;20164;-81
2022/05/09 08:05:43;;;;;;;18.08;3.95;;;19.10;99.90;;;;;;5028626;28;20563;-80
2022/05/09 08:08:10;;;;;;;20.10;3.65;;;19.20;99.90;;;;;;5022406;28;20165;-81
2022/05/09 08:10:36;;;;;;;18.08;4.75;;;19.30;99.90;;;;;;5016431;28;20263;-80
2022/05/09 08:13:03;;;;;;;16.73;3.30;;;19.20;99.90;;;;;;5015980;28;20160;-80
2022/05/09 08:15:31;;;;;;;6.07;3.17;;;19.40;99.90;;;;;;5014352;28;20223;-80
2022/05/09 08:17:58;;;;;;;11.45;4.00;;;19.50;99.90;;;;;;5016238;28;20183;-80
2022/05/09 08:20:24;;;;;;;8.88;3.60;;;19.70;99.90;;;;;;5031190;28;20200;-81
2022/05/09 08:22:59;;;;;;;15.48;3.17;;;19.70;99.90;;;;;;5016300;28;20196;-82
2022/05/09 08:25:25;;;;;;;13.63;4.10;;;19.90;99.90;;;;;;5018393;28;20523;-82
2022/05/09 08:27:51;;;;;;;14.43;3.83;;;19.80;99.90;;;;;;5014486;28;20231;-81
2022/05/09 08:30:18;;;;;;;37.20;4.38;;;20.00;99.90;;;;;;5015964;28;20283;-82
2022/05/09 08:32:44;;;;;;;28.13;3.47;;;20.00;99.90;;;;;;5015925;28;20224;-82
2022/05/09 08:35:10;;;;;;;15.20;2.83;;;20.10;99.90;;;;;;5015781;28;20215;-81
2022/05/09 08:37:36;;;;;;;13.15;2.38;;;20.10;99.90;;;;;;5030532;28;20271;-81
2022/05/09 08:40:03;;;;;;;9.00;1.70;;;20.10;99.90;;;;;;5015213;28;20681;-81
2022/05/09 08:42:52;;;;;;;3.08;2.28;;;20.30;99.90;;;;;;5014302;28;20260;-81
2022/05/09 08:45:29;;;;;;;18.35;3.42;;;20.10;99.90;;;;;;5015282;28;20648;-81
2022/05/09 08:48:35;;;;;;;7.60;2.25;;;20.40;99.90;;;;;;5015986;28;20215;-80
2022/05/09 08:51:17;;;;;;;18.67;2.05;;;20.60;99.90;;;;;;5015905;28;20597;-81
2022/05/09 08:53:45;;;;;;;11.57;2.08;;;20.80;99.90;;;;;;5015564;28;20179;-80
2022/05/09 08:56:16;;;;;;;12.70;2.47;;;21.00;99.90;;;;;;5013930;28;20220;-81
2022/05/09 08:58:53;;;;;;;8.80;1.75;;;21.20;99.90;;;;;;5015399;28;20173;-82
2022/05/09 09:01:27;;;;;;;9.13;1.98;;;21.00;99.90;;;;;;5014058;28;20179;-82
2022/05/09 09:04:00;;;;;;;12.20;1.88;;;21.00;99.90;;;;;;5015380;28;20176;-81
2022/05/09 09:06:56;;;;;;;6.50;1.55;;;21.10;99.90;;;;;;5015350;28;20196;-83
2022/05/09 09:09:49;;;;;;;2.47;1.20;;;21.20;99.90;;;;;;5015933;28;20252;-83
2022/05/09 09:12:39;;;;;;;11.13;1.60;;;21.20;99.50;;;;;;5016157;28;20180;-84
2022/05/09 09:15:22;;;;;;;13.25;1.80;;;21.10;99.80;;;;;;5016517;28;20640;-85
2022/05/09 09:18:14;;;;;;;7.80;1.33;;;21.00;99.90;;;;;;5015585;28;20176;-80
2022/05/09 09:21:00;;;;;;;2.47;1.05;;;21.10;99.40;;;;;;5014009;28;20184;-80
2022/05/09 09:24:03;;;;;;;2.72;1.02;;;21.20;99.40;;;;;;5015608;28;20164;-82
2022/05/09 09:26:50;;;;;;;6.88;1.25;;;21.30;98.60;;;;;;5016812;28;20203;-81
2022/05/09 09:29:34;;;;;;;5.63;1.38;;;21.20;98.90;;;;;;5016597;28;20184;-82
2022/05/09 09:32:07;;;;;;;3.40;1.10;;;21.20;98.60;;;;;;5016741;28;20172;-83
2022/05/09 09:35:07;;;;;;;6.50;1.35;;;21.30;99.00;;;;;;5013386;28;20196;-83
2022/05/09 09:37:33;;;;;;;8.38;1.30;;;21.30;98.10;;;;;;5013284;28;20177;-83
2022/05/09 09:39:59;;;;;;;4.60;0.95;;;21.40;98.10;;;;;;5013959;28;20204;-84
2022/05/09 09:42:26;;;;;;;4.50;1.02;;;21.50;98.00;;;;;;5015766;28;20169;-85
2022/05/09 09:44:54;;;;;;;7.75;1.63;;;21.70;97.80;;;;;;5015745;28;20191;-85
2022/05/09 09:47:20;;;;;;;2.60;1.23;;;21.50;98.20;;;;;;5030972;28;20204;-85
2022/05/09 09:50:09;;;;;;;5.93;1.27;;;21.60;97.80;;;;;;5015973;28;20648;-86
2022/05/09 09:52:47;;;;;;;3.15;1.48;;;21.60;97.80;;;;;;5031199;28;20172;-87
2022/05/09 09:55:19;;;;;;;11.00;2.83;;;21.60;97.70;;;;;;5013298;28;20211;-84
2022/05/09 09:57:46;;;;;;;13.05;1.52;;;21.50;97.90;;;;;;5013382;28;20256;-82
2022/05/09 10:00:26;;;;;;;3.83;1.15;;;21.80;97.80;;;;;;5014829;28;20165;-86
2022/05/09 10:02:54;;;;;;;5.55;1.63;;;22.00;96.80;;;;;;5013956;28;20168;-82
2022/05/09 10:05:31;;;;;;;5.05;1.35;;;21.90;97.10;;;;;;5013598;28;20195;-82
2022/05/09 10:07:57;;;;;;;5.85;1.67;;;21.70;97.40;;;;;;5015393;28;20172;-83
2022/05/09 10:10:25;;;;;;;2.90;1.45;;;21.60;97.60;;;;;;5013754;28;20267;-81
2022/05/09 10:12:56;;;;;;;4.18;1.48;;;21.60;97.80;;;;;;5012724;28;20181;-81
2022/05/09 10:15:35;;;;;;;4.65;1.70;;;21.60;97.70;;;;;;5028854;28;20220;-81
2022/05/09 10:18:23;;;;;;;2.75;1.95;;;21.70;97.70;;;;;;5012046;28;20172;-81
2022/05/09 10:20:51;;;;;;;8.60;1.60;;;21.90;98.00;;;;;;5012070;28;20164;-81
2022/05/09 10:26:22;;;;;;;2.05;1.33;;;22.10;97.70;;;;;;5014826;28;20233;-82
2022/05/09 10:28:56;;;;;;;9.68;2.10;;;22.30;97.40;;;;;;5014262;28;20176;-82
2022/05/09 10:31:37;;;;;;;7.53;1.27;;;22.40;97.20;;;;;;5015499;28;20254;-81
2022/05/09 10:34:26;;;;;;;8.15;1.90;;;22.30;97.60;;;;;;5011408;28;20227;-82
2022/05/09 10:36:51;;;;;;;22.55;2.92;;;22.30;97.50;;;;;;5011406;28;20192;-82
2022/05/09 10:39:25;;;;;;;13.15;2.08;;;22.30;97.30;;;;;;5013243;28;20177;-82
2022/05/09 10:41:55;;;;;;;5.50;2.10;;;22.40;97.00;;;;;;5017676;28;20169;-82
2022/05/09 10:44:29;;;;;;;7.72;2.05;;;22.60;96.90;;;;;;5021526;28;20535;-82
2022/05/09 10:47:15;;;;;;;3.85;1.83;;;22.60;97.10;;;;;;5019349;28;20184;-82
2022/05/09 10:49:52;;;;;;;3.33;1.90;;;22.70;96.80;;;;;;5020359;28;20174;-83
2022/05/09 10:52:29;;;;;;;7.32;2.03;;;22.80;97.00;;;;;;5019866;28;20180;-80
2022/05/09 10:55:24;;;;;;;13.57;3.00;;;23.00;97.10;;;;;;5022564;28;20204;-81
2022/05/09 10:58:19;;;;;;;13.48;1.98;;;22.90;97.10;;;;;;5025829;28;20200;-81
2022/05/09 11:00:51;;;;;;;10.20;2.13;;;22.90;96.90;;;;;;5016547;28;20252;-81
2022/05/09 11:03:34;;;;;;;5.72;1.92;;;22.80;96.50;;;;;;5028500;28;20667;-81
2022/05/09 11:06:22;;;;;;;3.65;1.75;;;23.00;96.80;;;;;;5021444;28;20219;-80
2022/05/09 11:09:15;;;;;;;5.28;1.27;;;22.80;97.10;;;;;;5033960;28;20177;-85
2022/05/09 11:11:44;;;;;;;6.57;2.05;;;22.90;97.10;;;;;;5033450;28;20153;-80
2022/05/09 11:14:22;;;;;;;3.30;1.98;;;22.80;97.00;;;;;;5031600;28;20256;-80
2022/05/09 11:17:20;;;;;;;4.57;2.72;;;22.90;97.50;;;;;;5033196;28;20192;-80
2022/05/09 11:20:07;;;;;;;5.25;2.20;;;22.80;97.30;;;;;;4985725;28;20270;-82
2022/05/09 11:22:51;;;;;;;8.40;2.95;;;22.70;98.00;;;;;;5015492;28;20524;-82
2022/05/09 11:25:20;;;;;;;6.65;2.00;;;23.00;97.20;;;;;;5015195;28;20651;-83
2022/05/09 11:27:51;;;;;;;10.73;2.72;;;23.10;97.40;;;;;;5013556;28;20671;-87
2022/05/09 11:30:35;;;;;;;9.15;2.35;;;23.20;97.60;;;;;;5011994;28;20176;-82
2022/05/09 11:33:20;;;;;;;5.53;2.30;;;23.10;97.00;;;;;;5012393;28;20182;-84
2022/05/09 11:35:51;;;;;;;6.65;2.63;;;23.00;97.10;;;;;;5012957;28;20226;-82
2022/05/09 11:38:33;;;;;;;7.57;2.50;;;23.00;97.30;;;;;;5012118;28;20172;-85
2022/05/09 11:41:05;;;;;;;12.15;2.88;;;23.30;96.80;;;;;;5013010;28;20160;-82
2022/05/09 11:43:51;;;;;;;5.43;2.03;;;23.20;96.90;;;;;;5012946;28;20169;-84
2022/05/09 11:46:43;;;;;;;3.45;2.35;;;23.30;97.00;;;;;;5011664;28;20243;-85
2022/05/09 11:49:15;;;;;;;35.13;3.88;;;23.40;97.10;;;;;;5012941;28;20165;-82
2022/05/09 11:51:49;;;;;;;16.98;3.20;;;23.60;97.40;;;;;;5012893;28;20173;-83
2022/05/09 11:54:31;;;;;;;8.25;2.40;;;23.70;97.20;;;;;;5012735;28;20195;-81
2022/05/09 11:57:02;;;;;;;10.93;4.38;;;23.50;97.30;;;;;;5012739;28;20257;-82
2022/05/09 11:59:31;;;;;;;11.05;3.13;;;23.60;96.90;;;;;;5011148;28;20160;-83
2022/05/09 12:02:04;;;;;;;6.88;3.08;;;23.80;96.90;;;;;;5014286;28;20585;-80
2022/05/09 12:04:41;;;;;;;8.35;2.85;;;23.70;97.00;;;;;;5015440;28;20203;-81
2022/05/09 12:07:26;;;;;;;11.95;3.13;;;23.70;96.50;;;;;;5012845;28;20227;-82
2022/05/09 12:09:58;;;;;;;6.75;3.72;;;23.80;97.30;;;;;;5011698;28;20177;-83
2022/05/09 12:12:41;;;;;;;10.93;3.00;;;23.90;97.50;;;;;;5012731;28;20172;-81
2022/05/09 12:15:24;;;;;;;8.93;3.63;;;24.10;97.40;;;;;;5012365;28;20279;-81
2022/05/09 12:18:00;;;;;;;13.40;3.67;;;24.10;97.50;;;;;;5013433;28;20527;-85
2022/05/09 12:20:29;;;;;;;7.45;3.40;;;24.10;97.40;;;;;;5014986;28;20172;-81
2022/05/09 12:23:03;;;;;;;11.95;3.80;;;23.90;97.30;;;;;;5014477;28;20179;-85
2022/05/09 12:25:41;;;;;;;6.07;3.08;;;24.00;97.20;;;;;;5031270;28;20287;-80
2022/05/09 12:28:27;;;;;;;9.27;3.30;;;24.10;97.90;;;;;;5015484;28;20583;-80
2022/05/09 12:31:01;;;;;;;11.10;4.13;;;24.30;98.70;;;;;;5016119;28;20183;-80
2022/05/09 12:33:48;;;;;;;11.85;3.90;;;24.30;97.10;;;;;;5031079;28;20240;-86
2022/05/09 12:36:20;;;;;;;7.82;3.05;;;24.30;97.60;;;;;;5031476;28;20689;-81
2022/05/09 12:38:53;;;;;;;9.85;3.35;;;24.30;97.70;;;;;;5015754;28;20164;-80
2022/05/09 12:41:30;;;;;;;6.22;3.00;;;24.30;97.60;;;;;;5016152;28;20192;-81
2022/05/09 12:44:00;;;;;;;3.30;3.00;;;24.40;98.20;;;;;;5016254;28;20171;-80
2022/05/09 12:46:40;;;;;;;6.78;3.30;;;24.40;98.00;;;;;;5016230;28;20351;-81
2022/05/09 12:49:08;;;;;;;2.80;2.33;;;24.60;97.80;;;;;;5016157;28;20172;-82
2022/05/09 12:51:44;;;;;;;9.82;3.65;;;24.70;98.00;;;;;;5031076;28;20172;-87
2022/05/09 12:54:14;;;;;;;4.65;3.35;;;24.70;98.60;;;;;;5016169;28;20176;-80
2022/05/09 12:56:52;;;;;;;8.60;3.40;;;24.90;97.10;;;;;;5015513;28;20698;-80
2022/05/09 12:59:19;;;;;;;6.80;3.28;;;24.80;97.90;;;;;;5014562;28;20223;-80
2022/05/09 13:01:55;;;;;;;9.25;3.40;;;24.70;97.60;;;;;;5015923;28;20165;-81
2022/05/09 13:04:26;;;;;;;7.05;2.90;;;24.70;97.80;;;;;;5031345;28;20175;-82
2022/05/09 13:06:56;;;;;;;8.02;2.83;;;24.80;98.40;;;;;;5015739;28;20554;-83
2022/05/09 13:09:28;;;;;;;51.03;5.90;;;25.00;97.70;;;;;;5031715;28;20175;-81